Time;durP1;ratioP1;P1;durP2;ratioP2;P2;SDS_P1;SDS_P2;PMS_P1;PMS_P2;Temp;Humidity;BMP_temperature;BMP_pressure;BME280_temperature;BME280_humidity;BME280_pressure;Samples;Min_cycle;Max_cycle;Signal;HPM_P1;HPM_P2
2022/06/29 00:00:15;;;;;;;0.60;0.60;;;;;18.20;98184.00;;;;5115070;28;20525;-75
2022/06/29 00:02:43;;;;;;;0.50;0.50;;;;;18.20;98178.00;;;;5114717;28;20284;-75
2022/06/29 00:05:12;;;;;;;0.80;0.80;;;;;18.10;98180.00;;;;5114873;28;20275;-75
2022/06/29 00:07:38;;;;;;;0.53;0.53;;;;;18.20;98174.00;;;;5096983;28;20201;-74
2022/06/29 00:10:07;;;;;;;0.90;0.87;;;;;18.00;98172.00;;;;5114829;28;20206;-74
2022/06/29 00:12:34;;;;;;;1.63;1.00;;;;;18.00;98166.00;;;;5114833;28;20225;-75
2022/06/29 00:15:02;;;;;;;0.70;0.70;;;;;18.00;98169.00;;;;5114867;28;20208;-75
2022/06/29 00:17:30;;;;;;;1.10;1.10;;;;;18.00;98162.00;;;;5114816;28;20217;-75
2022/06/29 00:19:57;;;;;;;0.90;0.90;;;;;18.10;98163.00;;;;5114732;28;20205;-75
2022/06/29 00:22:23;;;;;;;0.80;0.80;;;;;18.00;98158.00;;;;5114664;28;20201;-75
2022/06/29 00:24:50;;;;;;;0.53;0.53;;;;;18.00;98160.00;;;;5114654;28;20255;-76
2022/06/29 00:27:18;;;;;;;1.03;1.03;;;;;17.90;98154.00;;;;5114739;28;20194;-75
2022/06/29 00:29:45;;;;;;;0.67;0.67;;;;;17.90;98143.00;;;;5114586;28;20222;-75
2022/06/29 00:32:12;;;;;;;0.70;0.70;;;;;17.90;98140.00;;;;5114842;28;20210;-75
2022/06/29 00:34:39;;;;;;;0.80;0.80;;;;;17.90;98132.00;;;;5114554;28;20197;-75
2022/06/29 00:37:06;;;;;;;0.70;0.70;;;;;17.90;98132.00;;;;5114532;28;20194;-75
2022/06/29 00:39:33;;;;;;;1.17;0.97;;;;;17.90;98131.00;;;;5114462;28;20190;-75
2022/06/29 00:42:01;;;;;;;2.27;1.57;;;;;17.90;98125.00;;;;5114501;28;20198;-75
2022/06/29 00:44:29;;;;;;;0.93;0.93;;;;;18.00;98125.00;;;;5114311;28;20270;-73
2022/06/29 00:46:57;;;;;;;0.70;0.70;;;;;18.00;98113.00;;;;5115737;28;20205;-75
2022/06/29 00:49:26;;;;;;;0.90;0.90;;;;;17.90;98132.00;;;;5114242;28;20221;-75
2022/06/29 00:52:03;;;;;;;0.63;0.63;;;;;17.90;98131.00;;;;5114187;28;20232;-75
2022/06/29 00:54:35;;;;;;;1.10;1.10;;;;;17.90;98129.00;;;;5114405;28;20201;-75
2022/06/29 00:57:06;;;;;;;0.90;0.90;;;;;17.90;98128.00;;;;5114214;28;20212;-75
2022/06/29 00:59:41;;;;;;;0.80;0.80;;;;;18.00;98125.00;;;;5114664;28;20178;-75
2022/06/29 01:02:08;;;;;;;0.57;0.57;;;;;17.90;98124.00;;;;5114215;28;20197;-75
2022/06/29 01:04:34;;;;;;;0.90;0.90;;;;;18.00;98124.00;;;;5114006;28;20262;-75
2022/06/29 01:07:02;;;;;;;0.80;0.80;;;;;18.00;98128.00;;;;5118513;28;20240;-75
2022/06/29 01:09:28;;;;;;;0.93;0.93;;;;;18.00;98133.00;;;;5123516;28;20229;-75
2022/06/29 01:11:55;;;;;;;0.60;0.60;;;;;18.00;98124.00;;;;5105770;28;20320;-75
2022/06/29 01:14:24;;;;;;;1.00;1.00;;;;;18.00;98121.00;;;;5125689;28;20272;-75
2022/06/29 01:16:52;;;;;;;0.80;0.80;;;;;18.10;98129.00;;;;5127801;28;20269;-75
2022/06/29 01:19:19;;;;;;;0.63;0.63;;;;;18.10;98130.00;;;;5127710;28;20198;-76
2022/06/29 01:21:48;;;;;;;0.57;0.57;;;;;18.10;98127.00;;;;5127570;28;20186;-75
2022/06/29 01:24:16;;;;;;;0.50;0.50;;;;;18.10;98129.00;;;;5127651;28;20197;-75
2022/06/29 01:26:45;;;;;;;1.33;1.33;;;;;18.00;98129.00;;;;5122807;28;20579;-76
2022/06/29 01:29:11;;;;;;;0.50;0.50;;;;;18.00;98119.00;;;;5120074;28;20209;-75
2022/06/29 01:31:38;;;;;;;0.70;0.70;;;;;17.90;98125.00;;;;5118177;28;20214;-75
2022/06/29 01:34:05;;;;;;;0.97;0.97;;;;;17.90;98129.00;;;;5118082;28;20186;-75
2022/06/29 01:36:32;;;;;;;0.53;0.53;;;;;17.90;98132.00;;;;5118146;28;20209;-75
2022/06/29 01:38:59;;;;;;;0.83;0.83;;;;;18.00;98133.00;;;;5117934;28;20194;-75
2022/06/29 01:41:28;;;;;;;0.90;0.90;;;;;18.00;98138.00;;;;5117990;28;20520;-73
2022/06/29 01:43:55;;;;;;;0.80;0.80;;;;;18.00;98130.00;;;;5117786;28;20190;-75
2022/06/29 01:46:22;;;;;;;0.60;0.60;;;;;17.90;98142.00;;;;5099685;28;20214;-75
2022/06/29 01:48:51;;;;;;;0.60;0.60;;;;;17.90;98133.00;;;;5117595;28;20218;-75
2022/06/29 01:51:18;;;;;;;0.60;0.60;;;;;17.90;98134.00;;;;5117512;28;20228;-75
2022/06/29 01:53:47;;;;;;;0.57;0.57;;;;;17.90;98139.00;;;;5117750;28;20248;-75
2022/06/29 01:56:14;;;;;;;0.67;0.67;;;;;17.80;98135.00;;;;5117735;28;20205;-75
2022/06/29 01:58:42;;;;;;;0.50;0.50;;;;;17.80;98125.00;;;;5117260;28;20210;-75
2022/06/29 02:01:09;;;;;;;11.43;1.00;;;;;17.70;98136.00;;;;5117048;28;20190;-76
2022/06/29 02:03:36;;;;;;;0.77;0.67;;;;;17.60;98138.00;;;;5117006;28;20205;-76
2022/06/29 02:06:03;;;;;;;0.93;0.93;;;;;17.60;98132.00;;;;5116960;28;20565;-75
2022/06/29 02:08:32;;;;;;;0.83;0.83;;;;;17.60;98131.00;;;;5116845;28;20234;-75
2022/06/29 02:11:00;;;;;;;0.77;0.77;;;;;17.60;98122.00;;;;5116773;28;20221;-75
2022/06/29 02:13:27;;;;;;;0.60;0.60;;;;;17.60;98121.00;;;;5116768;28;20190;-74
2022/06/29 02:15:55;;;;;;;1.80;1.53;;;;;17.70;98113.00;;;;5116667;28;20198;-75
2022/06/29 02:18:24;;;;;;;1.00;1.00;;;;;17.60;98117.00;;;;5116675;28;20351;-74
2022/06/29 02:20:50;;;;;;;1.17;1.07;;;;;17.70;98118.00;;;;5116640;28;20216;-74
2022/06/29 02:23:17;;;;;;;0.47;0.47;;;;;17.50;98114.00;;;;5116861;28;20192;-74
2022/06/29 02:25:44;;;;;;;1.00;1.00;;;;;17.40;98120.00;;;;5116626;28;20206;-75
2022/06/29 02:28:11;;;;;;;0.57;0.57;;;;;17.30;98115.00;;;;5116735;28;20280;-75
2022/06/29 02:36:09;;;;;;;0.83;0.83;;;;;17.50;98100.00;;;;5116522;28;20198;-75
2022/06/29 02:38:36;;;;;;;1.00;0.90;;;;;17.50;98097.00;;;;5116362;28;20209;-75
2022/06/29 02:41:04;;;;;;;1.10;1.10;;;;;17.50;98097.00;;;;5116576;28;20274;-77
2022/06/29 02:43:30;;;;;;;1.90;1.80;;;;;17.50;98086.00;;;;5116396;28;20254;-74
2022/06/29 02:45:59;;;;;;;0.90;0.90;;;;;17.60;98083.00;;;;5116397;28;20190;-75
2022/06/29 02:48:27;;;;;;;1.90;1.77;;;;;17.40;98074.00;;;;5098500;28;20528;-74
2022/06/29 02:50:54;;;;;;;0.90;0.90;;;;;17.40;98082.00;;;;5116340;28;20317;-75
2022/06/29 02:53:21;;;;;;;0.90;0.90;;;;;17.30;98084.00;;;;5116191;28;20251;-75
2022/06/29 02:55:47;;;;;;;0.50;0.50;;;;;17.20;98088.00;;;;5116227;28;20294;-74
2022/06/29 02:58:14;;;;;;;0.80;0.80;;;;;17.30;98096.00;;;;5116027;28;20304;-75
2022/06/29 03:00:41;;;;;;;1.13;1.13;;;;;17.20;98089.00;;;;5116083;28;20206;-75
2022/06/29 03:03:08;;;;;;;1.23;1.23;;;;;17.20;98084.00;;;;5116149;28;20190;-74
2022/06/29 03:05:35;;;;;;;0.60;0.60;;;;;17.30;98088.00;;;;5117792;28;20190;-75
2022/06/29 03:08:03;;;;;;;1.23;1.20;;;;;17.20;98089.00;;;;5118449;28;20603;-75
2022/06/29 03:10:32;;;;;;;0.40;0.40;;;;;17.30;98098.00;;;;5117869;28;20221;-74
2022/06/29 03:12:59;;;;;;;0.60;0.60;;;;;17.30;98086.00;;;;5118138;28;20269;-74
2022/06/29 03:15:26;;;;;;;0.60;0.60;;;;;17.30;98087.00;;;;5118252;28;20198;-74
2022/06/29 03:17:53;;;;;;;1.03;1.03;;;;;17.30;98090.00;;;;5117967;28;20272;-75
2022/06/29 03:20:20;;;;;;;2.77;2.47;;;;;17.40;98082.00;;;;5117747;28;20197;-75
2022/06/29 03:22:47;;;;;;;1.67;1.13;;;;;17.40;98083.00;;;;5118015;28;20212;-74
2022/06/29 03:25:17;;;;;;;0.63;0.63;;;;;17.40;98086.00;;;;5119469;28;20260;-75
2022/06/29 03:27:44;;;;;;;0.80;0.80;;;;;17.30;98082.00;;;;5119899;28;20193;-75
2022/06/29 03:30:11;;;;;;;0.90;0.90;;;;;17.10;98086.00;;;;5119790;28;20224;-76
2022/06/29 03:32:39;;;;;;;0.70;0.70;;;;;17.10;98080.00;;;;5119897;28;20207;-75
2022/06/29 03:35:07;;;;;;;0.77;0.77;;;;;17.10;98085.00;;;;5122137;28;20194;-75
2022/06/29 03:37:33;;;;;;;0.60;0.60;;;;;17.20;98084.00;;;;5125840;28;20213;-75
2022/06/29 03:40:04;;;;;;;0.83;0.83;;;;;17.00;98087.00;;;;5121559;28;20210;-75
2022/06/29 03:42:31;;;;;;;0.97;0.97;;;;;17.00;98086.00;;;;5116934;28;20202;-76
2022/06/29 03:44:58;;;;;;;1.03;1.03;;;;;17.00;98083.00;;;;5116186;28;20225;-75
2022/06/29 03:47:25;;;;;;;0.80;0.80;;;;;17.00;98084.00;;;;5115302;28;20272;-75
2022/06/29 03:49:52;;;;;;;0.70;0.70;;;;;17.00;98086.00;;;;5115124;28;20210;-74
2022/06/29 03:52:19;;;;;;;0.73;0.73;;;;;17.10;98084.00;;;;5115064;28;20202;-74
2022/06/29 03:54:46;;;;;;;0.50;0.50;;;;;17.10;98079.00;;;;5115162;28;20204;-73
2022/06/29 03:57:13;;;;;;;0.97;0.97;;;;;17.10;98073.00;;;;5114966;28;20724;-75
2022/06/29 03:59:40;;;;;;;0.90;0.83;;;;;17.20;98079.00;;;;5115248;28;20527;-73
2022/06/29 04:02:07;;;;;;;0.53;0.53;;;;;17.20;98071.00;;;;5115058;28;20197;-74
2022/06/29 04:04:34;;;;;;;0.70;0.70;;;;;17.10;98062.00;;;;5114917;28;20229;-74
2022/06/29 04:07:03;;;;;;;0.57;0.57;;;;;17.20;98057.00;;;;5114972;28;20194;-74
2022/06/29 04:09:30;;;;;;;0.50;0.50;;;;;17.20;98063.00;;;;5114798;28;20237;-74
2022/06/29 04:11:57;;;;;;;1.47;1.37;;;;;17.10;98063.00;;;;5114810;28;20194;-74
2022/06/29 04:14:26;;;;;;;0.93;0.93;;;;;17.20;98071.00;;;;5115005;28;20663;-74
2022/06/29 04:16:54;;;;;;;0.77;0.77;;;;;17.20;98072.00;;;;5114679;28;20213;-73
2022/06/29 04:19:21;;;;;;;2.30;1.47;;;;;17.20;98071.00;;;;5114832;28;20214;-74
2022/06/29 04:21:48;;;;;;;1.27;1.27;;;;;17.20;98065.00;;;;5114735;28;20194;-74
2022/06/29 04:24:16;;;;;;;5.83;1.40;;;;;17.20;98057.00;;;;5114588;28;20218;-74
2022/06/29 04:26:42;;;;;;;0.60;0.60;;;;;17.30;98064.00;;;;5114690;28;20205;-74
2022/06/29 04:29:09;;;;;;;1.17;1.17;;;;;17.20;98071.00;;;;5114574;28;20652;-74
2022/06/29 04:31:39;;;;;;;0.97;0.97;;;;;17.30;98062.00;;;;5114574;28;20210;-73
2022/06/29 04:34:06;;;;;;;0.90;0.90;;;;;17.40;98067.00;;;;5114666;28;20190;-74
2022/06/29 04:36:33;;;;;;;0.70;0.70;;;;;17.40;98069.00;;;;5114623;28;20202;-74
2022/06/29 04:39:00;;;;;;;0.70;0.70;;;;;17.40;98079.00;;;;5114577;28;20204;-74
2022/06/29 04:41:27;;;;;;;1.03;1.03;;;;;17.40;98066.00;;;;5114464;28;20205;-73
2022/06/29 04:43:54;;;;;;;0.83;0.83;;;;;17.40;98072.00;;;;5114346;28;20278;-75
2022/06/29 04:46:23;;;;;;;0.80;0.80;;;;;17.50;98071.00;;;;5114505;28;20248;-75
2022/06/29 04:48:53;;;;;;;0.70;0.70;;;;;17.50;98071.00;;;;5113575;28;20194;-74
2022/06/29 04:51:20;;;;;;;0.80;0.80;;;;;17.50;98078.00;;;;5114228;28;20221;-74
2022/06/29 04:53:47;;;;;;;0.83;0.83;;;;;17.50;98075.00;;;;5114117;28;20266;-74
2022/06/29 04:56:15;;;;;;;1.30;1.20;;;;;17.60;98081.00;;;;5114185;28;20213;-74
2022/06/29 04:58:44;;;;;;;0.73;0.73;;;;;17.60;98071.00;;;;5114217;28;20215;-75
2022/06/29 05:01:11;;;;;;;1.20;1.10;;;;;17.70;98073.00;;;;5114121;28;20192;-74
2022/06/29 05:03:38;;;;;;;18.73;1.23;;;;;17.70;98067.00;;;;5114157;28;20229;-74
2022/06/29 05:06:06;;;;;;;1.00;1.00;;;;;17.70;98076.00;;;;5114114;28;20189;-74
2022/06/29 05:08:32;;;;;;;0.73;0.73;;;;;17.80;98066.00;;;;5114058;28;20378;-74
2022/06/29 05:10:59;;;;;;;1.13;1.03;;;;;17.80;98070.00;;;;5113925;28;20222;-74
2022/06/29 05:13:26;;;;;;;1.00;1.00;;;;;17.80;98069.00;;;;5113873;28;20239;-74
2022/06/29 05:15:53;;;;;;;3.20;2.03;;;;;17.90;98070.00;;;;5096013;28;20519;-74
2022/06/29 05:18:20;;;;;;;1.13;1.03;;;;;18.00;98065.00;;;;5113901;28;20205;-73
2022/06/29 05:20:47;;;;;;;0.50;0.50;;;;;18.00;98070.00;;;;5113927;28;20198;-74
2022/06/29 05:23:14;;;;;;;0.97;0.97;;;;;18.10;98078.00;;;;5113872;28;20215;-74
2022/06/29 05:25:41;;;;;;;1.07;1.07;;;;;18.10;98080.00;;;;5113799;28;20202;-74
2022/06/29 05:28:08;;;;;;;0.60;0.60;;;;;18.20;98082.00;;;;5113777;28;20202;-74
2022/06/29 05:30:35;;;;;;;0.60;0.60;;;;;18.30;98081.00;;;;5113584;28;20681;-72
2022/06/29 05:33:02;;;;;;;0.97;0.97;;;;;18.40;98081.00;;;;5113631;28;20257;-74
2022/06/29 05:35:33;;;;;;;0.80;0.80;;;;;18.40;98071.00;;;;5113737;28;20201;-75
2022/06/29 05:38:00;;;;;;;0.50;0.50;;;;;18.40;98079.00;;;;5113653;28;20316;-74
2022/06/29 05:40:28;;;;;;;2.50;2.30;;;;;18.40;98078.00;;;;5113683;28;20202;-74
2022/06/29 05:42:58;;;;;;;2.63;1.57;;;;;18.50;98074.00;;;;5113707;28;20194;-75
2022/06/29 05:45:24;;;;;;;0.90;0.90;;;;;18.60;98075.00;;;;5113575;28;20213;-74
2022/06/29 05:47:52;;;;;;;0.90;0.90;;;;;18.70;98077.00;;;;5113575;28;20190;-74
2022/06/29 05:50:19;;;;;;;0.70;0.70;;;;;18.80;98076.00;;;;5113572;28;20225;-75
2022/06/29 05:52:47;;;;;;;0.97;0.97;;;;;18.90;98079.00;;;;5113507;28;20195;-74
2022/06/29 05:55:13;;;;;;;1.03;1.03;;;;;18.90;98075.00;;;;5095410;28;20691;-75
2022/06/29 05:57:41;;;;;;;1.43;1.10;;;;;19.00;98086.00;;;;5113315;28;20214;-75
2022/06/29 06:00:10;;;;;;;0.70;0.70;;;;;19.10;98087.00;;;;5114254;28;20228;-75
2022/06/29 06:02:37;;;;;;;1.50;0.80;;;;;19.10;98089.00;;;;5117060;28;20292;-75
2022/06/29 06:05:04;;;;;;;2.17;1.43;;;;;19.20;98084.00;;;;5116886;28;20202;-75
2022/06/29 06:07:31;;;;;;;1.30;1.23;;;;;19.30;98084.00;;;;5116846;28;20281;-74
2022/06/29 06:09:58;;;;;;;0.63;0.63;;;;;19.30;98077.00;;;;5116659;28;20241;-74
2022/06/29 06:12:25;;;;;;;1.00;1.00;;;;;19.40;98077.00;;;;5116707;28;20201;-76
2022/06/29 06:14:52;;;;;;;1.07;1.07;;;;;19.40;98073.00;;;;5116698;28;20190;-75
2022/06/29 06:17:19;;;;;;;0.80;0.80;;;;;19.50;98077.00;;;;5116683;28;20222;-75
2022/06/29 06:19:46;;;;;;;0.80;0.80;;;;;19.50;98072.00;;;;5116687;28;20621;-72
2022/06/29 06:22:13;;;;;;;1.23;1.13;;;;;19.60;98073.00;;;;5098575;28;20598;-72
2022/06/29 06:24:42;;;;;;;0.93;0.73;;;;;19.80;98074.00;;;;5116626;28;20226;-72
2022/06/29 06:27:09;;;;;;;0.70;0.70;;;;;19.90;98080.00;;;;5116626;28;20639;-71
2022/06/29 06:29:36;;;;;;;0.73;0.73;;;;;20.00;98073.00;;;;5116538;28;20226;-72
2022/06/29 06:32:04;;;;;;;0.80;0.80;;;;;20.10;98075.00;;;;5116417;28;20623;-76
2022/06/29 06:34:31;;;;;;;1.10;1.10;;;;;20.20;98075.00;;;;5116467;28;20245;-75
2022/06/29 06:36:59;;;;;;;0.83;0.83;;;;;20.50;98071.00;;;;5116453;28;20217;-74
2022/06/29 06:39:26;;;;;;;1.07;1.00;;;;;20.70;98072.00;;;;5116381;28;20244;-75
2022/06/29 06:41:55;;;;;;;0.93;0.93;;;;;20.90;98070.00;;;;5116341;28;20190;-74
2022/06/29 06:44:22;;;;;;;0.90;0.90;;;;;21.10;98071.00;;;;5098354;28;20206;-75
2022/06/29 06:46:49;;;;;;;1.02;1.02;;;;;21.20;98074.00;;;;5116165;28;20518;-74
2022/06/29 06:49:16;;;;;;;1.00;1.00;;;;;21.20;98077.00;;;;5098327;28;20221;-74
2022/06/29 06:51:43;;;;;;;0.88;0.88;;;;;21.30;98074.00;;;;5116218;28;20190;-73
2022/06/29 06:54:10;;;;;;;1.63;1.58;;;;;21.50;98080.00;;;;5116139;28;20228;-74
2022/06/29 06:56:36;;;;;;;0.75;0.75;;;;;21.60;98077.00;;;;5116176;28;20186;-74
2022/06/29 06:59:05;;;;;;;0.90;0.90;;;;;21.60;98073.00;;;;5116097;28;20205;-74
2022/06/29 07:01:35;;;;;;;0.70;0.70;;;;;21.70;98075.00;;;;5115944;28;20209;-74
2022/06/29 07:04:02;;;;;;;0.77;0.77;;;;;21.70;98080.00;;;;5115234;28;20206;-75
2022/06/29 07:06:29;;;;;;;0.82;0.82;;;;;21.70;98074.00;;;;5115835;28;20210;-75
2022/06/29 07:08:57;;;;;;;0.90;0.90;;;;;21.60;98082.00;;;;5115808;28;20303;-76
2022/06/29 07:11:24;;;;;;;0.75;0.75;;;;;21.50;98086.00;;;;5114971;28;20281;-75
2022/06/29 07:13:51;;;;;;;1.42;1.25;;;;;21.50;98083.00;;;;5115734;28;20198;-75
2022/06/29 07:16:18;;;;;;;0.63;0.63;;;;;21.40;98073.00;;;;5115906;28;20227;-76
2022/06/29 07:18:44;;;;;;;2.45;1.35;;;;;21.50;98087.00;;;;5115509;28;20652;-75
2022/06/29 07:21:13;;;;;;;0.57;0.57;;;;;21.40;98085.00;;;;5115655;28;20202;-73
2022/06/29 07:23:41;;;;;;;1.13;1.13;;;;;21.40;98084.00;;;;5115787;28;20273;-74
2022/06/29 07:26:08;;;;;;;0.60;0.60;;;;;21.50;98082.00;;;;5115597;28;20222;-74
2022/06/29 07:28:34;;;;;;;1.45;1.35;;;;;21.60;98075.00;;;;5115615;28;20200;-72
2022/06/29 07:31:01;;;;;;;0.98;0.98;;;;;21.60;98078.00;;;;5115438;28;20222;-73
2022/06/29 07:33:28;;;;;;;1.13;1.13;;;;;21.70;98079.00;;;;5115463;28;20205;-72
2022/06/29 07:35:55;;;;;;;0.82;0.82;;;;;21.70;98082.00;;;;5097520;28;20206;-73
2022/06/29 07:38:22;;;;;;;1.23;1.13;;;;;21.70;98081.00;;;;5115322;28;20217;-74
2022/06/29 07:40:51;;;;;;;0.65;0.65;;;;;21.70;98083.00;;;;5115316;28;20310;-73
2022/06/29 07:43:18;;;;;;;0.85;0.85;;;;;21.80;98088.00;;;;5115427;28;20223;-74
2022/06/29 07:45:46;;;;;;;0.68;0.68;;;;;22.00;98079.00;;;;5115282;28;20519;-73
2022/06/29 07:48:13;;;;;;;1.40;0.82;;;;;22.20;98088.00;;;;5115229;28;20497;-74
2022/06/29 07:50:40;;;;;;;1.10;1.10;;;;;22.10;98083.00;;;;5115096;28;20230;-74
2022/06/29 07:53:06;;;;;;;0.90;0.90;;;;;22.10;98087.00;;;;5115135;28;20254;-73
2022/06/29 07:55:33;;;;;;;0.80;0.80;;;;;22.30;98086.00;;;;5115088;28;20241;-73
2022/06/29 07:58:01;;;;;;;0.60;0.60;;;;;22.40;98087.00;;;;5114922;28;20190;-71
2022/06/29 08:00:28;;;;;;;0.60;0.60;;;;;22.40;98077.00;;;;5115302;28;20190;-73
2022/06/29 08:02:55;;;;;;;0.57;0.57;;;;;22.40;98077.00;;;;5115057;28;20200;-72
2022/06/29 08:05:24;;;;;;;0.77;0.77;;;;;22.50;98080.00;;;;5114843;28;20223;-75
2022/06/29 08:07:51;;;;;;;0.63;0.63;;;;;22.70;98089.00;;;;5115016;28;20206;-76
2022/06/29 08:10:19;;;;;;;0.68;0.68;;;;;22.80;98079.00;;;;5114767;28;20218;-74
2022/06/29 08:12:45;;;;;;;0.70;0.70;;;;;22.90;98085.00;;;;5114865;28;20335;-75
2022/06/29 08:15:17;;;;;;;0.60;0.60;;;;;23.00;98084.00;;;;5114794;28;20221;-72
2022/06/29 08:17:44;;;;;;;0.60;0.60;;;;;23.10;98079.00;;;;5114653;28;20255;-74
2022/06/29 08:20:12;;;;;;;2.60;2.00;;;;;23.30;98079.00;;;;5114810;28;20193;-73
2022/06/29 08:22:39;;;;;;;0.60;0.60;;;;;23.50;98082.00;;;;5114586;28;20190;-73
2022/06/29 08:25:06;;;;;;;0.90;0.90;;;;;23.70;98077.00;;;;5114545;28;20228;-74
2022/06/29 08:27:33;;;;;;;1.98;1.08;;;;;23.90;98077.00;;;;5114678;28;20200;-76
2022/06/29 08:30:00;;;;;;;0.60;0.60;;;;;24.00;98070.00;;;;5114482;28;20222;-73
2022/06/29 08:32:27;;;;;;;0.68;0.68;;;;;24.20;98078.00;;;;5114645;28;20625;-72
2022/06/29 08:34:59;;;;;;;1.02;1.02;;;;;24.40;98073.00;;;;5114480;28;20194;-73
2022/06/29 08:37:26;;;;;;;0.90;0.90;;;;;24.60;98074.00;;;;5114373;28;20281;-73
2022/06/29 08:39:53;;;;;;;0.85;0.85;;;;;24.70;98066.00;;;;5114529;28;20204;-74
2022/06/29 08:42:22;;;;;;;0.70;0.70;;;;;24.90;98070.00;;;;5114522;28;20660;-74
2022/06/29 08:44:51;;;;;;;0.63;0.63;;;;;25.10;98067.00;;;;5114441;28;20224;-75
2022/06/29 08:47:20;;;;;;;1.80;1.42;;;;;25.10;98068.00;;;;5114386;28;20193;-74
2022/06/29 08:49:47;;;;;;;1.35;1.25;;;;;25.10;98073.00;;;;5114224;28;20220;-74
2022/06/29 08:52:15;;;;;;;1.65;1.55;;;;;25.10;98067.00;;;;5114268;28;20194;-74
2022/06/29 08:54:46;;;;;;;1.10;1.10;;;;;25.00;98073.00;;;;5114240;28;20237;-75
2022/06/29 08:57:16;;;;;;;2.88;0.88;;;;;25.10;98075.00;;;;5114284;28;20278;-73
2022/06/29 08:59:44;;;;;;;1.45;1.45;;;;;24.90;98078.00;;;;5114244;28;20645;-71
2022/06/29 09:02:11;;;;;;;1.52;0.90;;;;;24.90;98072.00;;;;5114250;28;20213;-71
2022/06/29 09:04:38;;;;;;;0.93;0.93;;;;;25.00;98070.00;;;;5114099;28;20196;-73
2022/06/29 09:07:09;;;;;;;1.10;1.10;;;;;25.30;98078.00;;;;5114079;28;20214;-73
2022/06/29 09:09:57;;;;;;;1.05;0.98;;;;;25.20;98073.00;;;;5113936;28;20261;-73
2022/06/29 09:12:27;;;;;;;2.08;1.10;;;;;25.40;98071.00;;;;5114017;28;20258;-74
2022/06/29 09:14:53;;;;;;;0.80;0.80;;;;;25.50;98073.00;;;;5114092;28;20193;-74
2022/06/29 09:17:21;;;;;;;0.50;0.50;;;;;25.60;98073.00;;;;5114025;28;20206;-73
2022/06/29 09:19:48;;;;;;;0.85;0.85;;;;;25.70;98079.00;;;;5113930;28;20246;-73
2022/06/29 09:22:16;;;;;;;1.00;1.00;;;;;25.60;98079.00;;;;5113769;28;20236;-74
2022/06/29 09:24:43;;;;;;;1.88;1.27;;;;;25.40;98073.00;;;;5113904;28;20189;-73
2022/06/29 09:27:11;;;;;;;0.63;0.63;;;;;25.50;98070.00;;;;5113866;28;20189;-75
2022/06/29 09:29:42;;;;;;;1.10;0.77;;;;;25.50;98071.00;;;;5113760;28;20586;-75
2022/06/29 09:32:11;;;;;;;0.80;0.80;;;;;25.70;98073.00;;;;5113920;28;20736;-72
2022/06/29 09:34:40;;;;;;;0.85;0.85;;;;;25.60;98073.00;;;;5116354;28;20201;-74
2022/06/29 09:37:09;;;;;;;1.08;1.08;;;;;25.40;98069.00;;;;5117440;28;20222;-75
2022/06/29 09:39:41;;;;;;;1.00;1.00;;;;;25.40;98070.00;;;;5117555;28;20288;-75
2022/06/29 09:42:09;;;;;;;1.95;1.05;;;;;25.70;98072.00;;;;5117340;28;20228;-74
2022/06/29 09:44:37;;;;;;;0.70;0.70;;;;;26.00;98073.00;;;;5117196;28;20205;-72
2022/06/29 09:47:06;;;;;;;1.13;1.05;;;;;26.20;98070.00;;;;5117184;28;20194;-72
2022/06/29 09:49:34;;;;;;;0.40;0.40;;;;;26.20;98071.00;;;;5117108;28;20221;-72
2022/06/29 09:52:03;;;;;;;0.60;0.60;;;;;26.20;98075.00;;;;5099366;28;20573;-72
2022/06/29 09:54:35;;;;;;;1.10;0.90;;;;;26.50;98076.00;;;;5117087;28;20264;-73
2022/06/29 09:57:06;;;;;;;0.57;0.57;;;;;26.50;98071.00;;;;5117084;28;20288;-72
2022/06/29 10:02:36;;;;;;;1.08;1.00;;;;;26.10;98085.00;;;;5099273;28;20538;-74
2022/06/29 10:05:08;;;;;;;3.92;0.90;;;;;25.80;98074.00;;;;5116938;28;20217;-74
2022/06/29 10:07:39;;;;;;;0.70;0.70;;;;;26.10;98080.00;;;;5098818;28;20222;-73
2022/06/29 10:10:09;;;;;;;0.50;0.50;;;;;26.10;98079.00;;;;5116685;28;20271;-74
2022/06/29 10:16:22;;;;;;;0.70;0.70;;;;;26.10;98067.00;;;;5116718;28;20259;-74
2022/06/29 10:19:10;;;;;;;0.75;0.75;;;;;26.10;98068.00;;;;5116716;28;20185;-73
2022/06/29 10:21:39;;;;;;;0.93;0.93;;;;;26.10;98074.00;;;;5116739;28;20193;-75
2022/06/29 10:24:06;;;;;;;0.80;0.80;;;;;26.30;98070.00;;;;5116664;28;20622;-75
2022/06/29 10:26:46;;;;;;;0.82;0.82;;;;;26.30;98068.00;;;;5116507;28;20228;-75
2022/06/29 10:29:39;;;;;;;0.55;0.55;;;;;26.10;98072.00;;;;5116482;28;20287;-72
2022/06/29 10:32:16;;;;;;;0.80;0.80;;;;;26.00;98068.00;;;;5116471;28;20301;-72
2022/06/29 10:37:32;;;;;;;1.13;1.13;;;;;26.10;98069.00;;;;5116561;28;20205;-72
2022/06/29 10:40:08;;;;;;;0.88;0.88;;;;;25.90;98071.00;;;;5116465;28;20221;-72
2022/06/29 10:45:39;;;;;;;0.52;0.52;;;;;26.40;98070.00;;;;5116249;28;20218;-76
2022/06/29 10:48:23;;;;;;;0.73;0.73;;;;;26.60;98070.00;;;;5112096;28;20304;-76
2022/06/29 10:50:53;;;;;;;0.68;0.68;;;;;26.70;98073.00;;;;5116748;28;20229;-74
2022/06/29 10:53:21;;;;;;;0.50;0.50;;;;;26.60;98065.00;;;;5116190;28;20206;-76
2022/06/29 10:55:52;;;;;;;1.30;0.90;;;;;26.60;98062.00;;;;5116018;28;20660;-74
2022/06/29 10:58:20;;;;;;;0.80;0.80;;;;;26.80;98065.00;;;;5116023;28;20218;-75
2022/06/29 11:00:51;;;;;;;0.77;0.73;;;;;26.80;98065.00;;;;5116082;28;20198;-75
2022/06/29 11:03:23;;;;;;;1.20;1.17;;;;;26.70;98064.00;;;;5116030;28;20608;-75
2022/06/29 11:16:59;;;;;;;10.85;1.95;;;;;27.10;98047.00;;;;5115705;28;20956;-75
2022/06/29 11:19:31;;;;;;;0.70;0.70;;;;;27.00;98057.00;;;;5098061;28;20690;-77
2022/06/29 11:22:13;;;;;;;0.80;0.80;;;;;27.30;98055.00;;;;5116888;28;20272;-75
2022/06/29 11:24:57;;;;;;;0.77;0.77;;;;;27.40;98052.00;;;;5117414;28;20202;-77
2022/06/29 11:27:38;;;;;;;2.65;1.52;;;;;27.10;98056.00;;;;5115633;28;20202;-76
2022/06/29 11:30:09;;;;;;;0.90;0.90;;;;;27.20;98057.00;;;;5115571;28;20217;-77
2022/06/29 11:32:42;;;;;;;0.70;0.70;;;;;27.30;98056.00;;;;5115547;28;20250;-77
2022/06/29 11:35:10;;;;;;;0.60;0.60;;;;;27.40;98056.00;;;;5115492;28;20266;-74
2022/06/29 11:37:45;;;;;;;0.80;0.80;;;;;27.40;98051.00;;;;5115347;28;20657;-72
2022/06/29 11:40:12;;;;;;;0.80;0.80;;;;;27.90;98048.00;;;;5115439;28;20271;-75
2022/06/29 11:45:35;;;;;;;0.70;0.70;;;;;28.30;98046.00;;;;5115308;28;20664;-72
2022/06/29 11:48:11;;;;;;;0.88;0.88;;;;;28.60;98041.00;;;;5115570;28;20285;-75
2022/06/29 11:50:43;;;;;;;0.50;0.50;;;;;28.70;98034.00;;;;5115069;28;20304;-75
2022/06/29 11:53:13;;;;;;;1.55;1.45;;;;;28.90;98023.00;;;;5115231;28;20206;-74
2022/06/29 11:55:42;;;;;;;0.95;0.95;;;;;29.50;98028.00;;;;5114996;28;20218;-75
2022/06/29 11:58:13;;;;;;;0.93;0.93;;;;;30.10;98028.00;;;;5114720;28;20197;-75
2022/06/29 12:00:40;;;;;;;1.30;1.20;;;;;29.50;98041.00;;;;5115140;28;20219;-73
2022/06/29 12:03:08;;;;;;;1.15;1.15;;;;;29.20;98043.00;;;;5114919;28;20292;-75
2022/06/29 12:05:37;;;;;;;0.93;0.93;;;;;28.90;98022.00;;;;5097061;28;20285;-76
2022/06/29 12:08:04;;;;;;;1.02;1.02;;;;;28.90;98032.00;;;;5115002;28;20186;-75
2022/06/29 12:10:31;;;;;;;0.93;0.93;;;;;29.10;98027.00;;;;5115042;28;20269;-75
2022/06/29 12:12:58;;;;;;;0.73;0.73;;;;;29.30;98016.00;;;;5115082;28;20357;-75
2022/06/29 12:15:27;;;;;;;0.80;0.80;;;;;29.90;98027.00;;;;5114732;28;20226;-75
2022/06/29 12:17:56;;;;;;;0.80;0.80;;;;;30.30;98017.00;;;;5114888;28;20205;-74
2022/06/29 12:20:23;;;;;;;0.93;0.93;;;;;30.70;98022.00;;;;5115089;28;20608;-76
2022/06/29 12:22:50;;;;;;;0.68;0.68;;;;;30.70;98014.00;;;;5114644;28;20282;-75
2022/06/29 12:25:19;;;;;;;0.98;0.98;;;;;30.90;98001.00;;;;5114685;28;20194;-74
2022/06/29 12:27:45;;;;;;;0.80;0.80;;;;;31.10;97999.00;;;;5114625;28;20208;-76
2022/06/29 12:30:13;;;;;;;1.45;0.93;;;;;31.50;98001.00;;;;5114633;28;20279;-78
2022/06/29 12:32:40;;;;;;;0.63;0.63;;;;;31.60;98003.00;;;;5114552;28;20206;-76
2022/06/29 12:35:09;;;;;;;1.05;1.05;;;;;30.80;98004.00;;;;5114435;28;20213;-74
2022/06/29 12:37:37;;;;;;;0.60;0.60;;;;;30.70;98005.00;;;;5117069;28;20210;-75
2022/06/29 12:40:06;;;;;;;0.70;0.70;;;;;30.90;97991.00;;;;5125926;28;20766;-75
2022/06/29 12:42:32;;;;;;;0.90;0.90;;;;;31.20;98006.00;;;;5114588;28;20194;-75
2022/06/29 12:44:59;;;;;;;1.20;1.15;;;;;30.70;98007.00;;;;5114471;28;20194;-75
2022/06/29 12:47:28;;;;;;;0.63;0.63;;;;;30.10;98006.00;;;;5114299;28;20309;-75
2022/06/29 12:49:55;;;;;;;1.23;1.17;;;;;29.60;98012.00;;;;5114272;28;20218;-75
2022/06/29 12:52:23;;;;;;;1.08;0.98;;;;;29.70;97995.00;;;;5114340;28;20704;-75
2022/06/29 12:54:52;;;;;;;0.70;0.70;;;;;30.50;97994.00;;;;5114343;28;20260;-74